メインページ
METAR-TAF:

METAR-TAF

空港 :

レイキャヴィーク, アイスランド

レイキャヴィーク空港

緯度: 64-08N, 経度: 021-54W, 海抜: 54m

現時点の気象観測

当レポートは57分前の05:00(UTC)に作成
無風
気温 7°C
湿度 57%
気圧 1017 hPa
視程10km以上
1,500メートル以下は雲なし、積乱雲なし

METAR: BIRK 200500Z 00000KT CAVOK 07/M01 Q1017

時間: 05:57 (05:57 UTC)

予報

当レポートは1時間9分前の04:48(UTC)に作成
予報は20日の 06時(UTC)から 21日の 06時(UTC)まで有効
の風 5kt
視程10km以上
高度3500ftの雲はほとんどない
20日の 12時(UTC)から 20日の 15時(UTC)まで徐々に
北西の風 10kt
20日の 22時(UTC)から 21日の 01時(UTC)まで徐々に
東/南東の風 5kt

TAF: BIRK 200448Z 2006/2106 10005KT 9999 FEW035 TX15/2015Z TN06/2006Z BECMG 2012/2015 32010KT BECMG 2022/2101 12005KT

4,000以上の空港の気象観測と天気予報(METAR報とTAF報)

利用可能な観測所は地図上に黄色い丸と赤い丸で示す。

丸の上にカーソルを重ねると観測所名を参照できる。

次にクリックすると気象観測と天気予報を参照できる。

マップの切り替え:黒色「×」印の緑ボタンをクリックして拡大、「-」印の緑ボタンをクリックして縮小、緑色の三角印をクリックして隣りの地図に切り替え


METAR-TAF: